createdAt,value
2022-08-16T00:01:07.484Z,56.04
2022-08-16T00:03:41.042Z,55.73
2022-08-16T00:06:15.567Z,55.35
2022-08-16T00:08:48.028Z,54.64
2022-08-16T00:11:22.574Z,54.22
2022-08-16T00:13:56.118Z,54.05
2022-08-16T00:17:06.472Z,53.74
2022-08-16T00:19:07.265Z,53.23
2022-08-16T00:21:40.310Z,53.38
2022-08-16T00:24:13.648Z,53.49
2022-08-16T00:26:47.900Z,53.24
2022-08-16T00:29:22.505Z,53.24
2022-08-16T00:31:59.318Z,52.48
2022-08-16T00:34:44.028Z,52.44
2022-08-16T00:37:03.784Z,51.84
2022-08-16T00:39:36.974Z,51.49
2022-08-16T00:42:11.029Z,51.52
2022-08-16T00:44:47.305Z,52.96
2022-08-16T00:47:21.838Z,56.63
2022-08-16T00:49:56.302Z,58.44
2022-08-16T00:52:30.869Z,61.26
2022-08-16T00:55:04.550Z,61.26
2022-08-16T00:57:58.808Z,61.79
2022-08-16T01:00:20.145Z,62.38
2022-08-16T01:02:49.223Z,62.40
2022-08-16T01:05:23.848Z,62.89
2022-08-16T01:07:58.628Z,62.68
2022-08-16T01:10:33.658Z,62.11
2022-08-16T01:13:15.079Z,61.84
2022-08-16T01:16:02.952Z,61.62
2022-08-16T01:18:49.834Z,60.88
2022-08-16T01:21:48.510Z,61.42
2022-08-16T01:24:53.525Z,63.22
2022-08-16T01:27:22.501Z,67.52
2022-08-16T01:30:19.737Z,70.52
2022-08-16T01:33:01.923Z,72.52
2022-08-16T01:35:35.107Z,75.83
2022-08-16T01:38:29.183Z,76.85
2022-08-16T01:41:09.641Z,78.42
2022-08-16T01:43:44.235Z,79.59
2022-08-16T01:46:39.547Z,80.24
2022-08-16T01:49:45.392Z,80.90
2022-08-16T01:52:30.258Z,81.05
2022-08-16T01:55:01.446Z,81.67
2022-08-16T01:57:35.547Z,82.01
2022-08-16T02:00:19.166Z,81.63
2022-08-16T02:02:52.490Z,81.45
2022-08-16T02:05:23.683Z,81.80
2022-08-16T02:07:55.974Z,82.93
2022-08-16T02:10:28.816Z,83.97
2022-08-16T02:13:02.331Z,84.55
2022-08-16T02:15:40.161Z,84.61
2022-08-16T02:18:12.421Z,83.94
2022-08-16T02:20:49.178Z,83.03
2022-08-16T02:23:22.414Z,82.28
2022-08-16T02:25:54.944Z,81.79
2022-08-16T02:28:28.798Z,80.97
2022-08-16T02:31:06.499Z,80.58
2022-08-16T02:33:43.876Z,80.26
2022-08-16T02:36:47.147Z,80.02
2022-08-16T02:38:50.697Z,80.22
2022-08-16T02:41:23.694Z,80.13
2022-08-16T02:43:58.668Z,79.87
2022-08-16T02:46:33.681Z,79.58
2022-08-16T02:49:08.440Z,79.71
2022-08-16T02:51:41.920Z,79.77
2022-08-16T02:54:16.812Z,79.66
2022-08-16T02:56:51.030Z,79.97
2022-08-16T02:59:26.575Z,80.07
2022-08-16T03:02:01.037Z,80.30
2022-08-16T03:04:50.551Z,80.42
2022-08-16T03:07:10.883Z,80.29
2022-08-16T03:09:45.664Z,80.42
2022-08-16T03:12:30.224Z,80.59
2022-08-16T03:14:56.514Z,80.89
2022-08-16T03:17:32.317Z,81.07
2022-08-16T03:20:06.326Z,81.11
2022-08-16T03:22:40.574Z,81.37
2022-08-16T03:25:17.223Z,81.52
2022-08-16T03:27:54.439Z,81.25
2022-08-16T03:30:50.407Z,81.08
2022-08-16T03:33:23.504Z,81.00
2022-08-16T03:36:29.912Z,81.05
2022-08-16T03:38:36.878Z,81.03
2022-08-16T03:41:17.196Z,81.03
2022-08-16T03:43:51.034Z,81.04
2022-08-16T03:46:45.065Z,81.00
2022-08-16T03:48:57.598Z,80.81
2022-08-16T03:51:30.377Z,80.82
2022-08-16T03:54:12.566Z,80.83
2022-08-16T03:56:57.842Z,80.73
2022-08-16T03:59:17.813Z,80.48
2022-08-16T04:01:53.745Z,80.29
2022-08-16T04:04:33.550Z,79.94
2022-08-16T04:07:00.833Z,79.56
2022-08-16T04:09:38.293Z,79.25
2022-08-16T04:12:52.181Z,79.04
2022-08-16T04:14:48.243Z,79.17
2022-08-16T04:17:21.159Z,78.96
2022-08-16T04:19:58.509Z,78.87
2022-08-16T04:22:29.864Z,78.70
2022-08-16T04:25:03.557Z,78.79
2022-08-16T04:27:55.697Z,78.68
2022-08-16T04:30:32.334Z,78.75
2022-08-16T04:32:53.486Z,78.46
2022-08-16T04:35:34.017Z,78.40
2022-08-16T04:38:11.002Z,78.14
2022-08-16T04:40:39.479Z,77.84
2022-08-16T04:43:12.422Z,77.63
2022-08-16T04:45:47.637Z,77.41
2022-08-16T04:48:32.399Z,77.45
2022-08-16T04:51:00.467Z,76.80
2022-08-16T04:53:34.696Z,76.38
2022-08-16T04:56:11.578Z,76.11
2022-08-16T04:58:45.702Z,75.43
2022-08-16T05:01:17.513Z,74.99
2022-08-16T05:04:00.351Z,74.01
2022-08-16T05:06:42.032Z,73.58
2022-08-16T05:09:00.504Z,72.30
2022-08-16T05:11:33.525Z,72.23
2022-08-16T05:14:07.661Z,71.90
2022-08-16T05:19:26.252Z,69.84
2022-08-16T05:22:18.000Z,68.97
2022-08-16T05:24:46.509Z,69.02
2022-08-16T05:27:19.019Z,68.10
2022-08-16T05:30:00.678Z,68.10
2022-08-16T05:32:32.817Z,67.66
2022-08-16T05:35:02.363Z,67.47
2022-08-16T05:37:39.804Z,67.38
2022-08-16T05:40:36.099Z,67.51
2022-08-16T05:43:11.969Z,67.74
2022-08-16T05:45:45.585Z,67.24
2022-08-16T05:48:20.852Z,66.89
2022-08-16T05:50:56.812Z,66.80
2022-08-16T05:53:29.877Z,66.51
2022-08-16T05:56:12.040Z,65.93
2022-08-16T05:58:47.804Z,66.03
2022-08-16T06:01:20.382Z,65.30
2022-08-16T06:03:57.059Z,65.61
2022-08-16T06:06:33.060Z,65.40
2022-08-16T06:09:06.843Z,64.79
2022-08-16T06:11:43.188Z,62.75
2022-08-16T06:14:16.706Z,62.75
2022-08-16T06:16:50.627Z,62.91
2022-08-16T06:19:24.706Z,61.73
2022-08-16T06:22:00.354Z,62.40
2022-08-16T06:24:54.244Z,62.40
2022-08-16T06:27:10.465Z,62.94
2022-08-16T06:29:49.955Z,63.58
2022-08-16T06:32:27.121Z,64.14
2022-08-16T06:35:02.053Z,64.14
2022-08-16T06:37:37.183Z,64.60
2022-08-16T06:40:12.904Z,64.56
2022-08-16T06:42:53.950Z,64.40
2022-08-16T06:45:43.489Z,64.86
2022-08-16T06:48:18.929Z,64.77
2022-08-16T06:50:52.367Z,64.15
2022-08-16T06:53:25.073Z,64.66
2022-08-16T06:56:04.148Z,64.30
2022-08-16T06:58:40.153Z,64.36
2022-08-16T07:01:16.061Z,64.36
2022-08-16T07:03:55.116Z,64.52
2022-08-16T07:06:26.525Z,65.02
2022-08-16T07:09:02.195Z,64.64
2022-08-16T07:11:46.124Z,65.17
2022-08-16T07:14:24.714Z,64.60
2022-08-16T07:16:50.093Z,64.53
2022-08-16T07:19:22.988Z,64.76
2022-08-16T07:21:59.792Z,64.43
2022-08-16T07:24:32.898Z,64.09
2022-08-16T07:27:12.522Z,64.29
2022-08-16T07:29:45.953Z,64.29
2022-08-16T07:32:29.093Z,64.77
2022-08-16T07:34:55.759Z,65.15
2022-08-16T07:37:28.333Z,65.89
2022-08-16T07:40:11.111Z,67.14
2022-08-16T07:42:38.918Z,67.14
2022-08-16T07:45:13.374Z,67.95
2022-08-16T07:47:51.171Z,68.36
2022-08-16T07:50:56.120Z,68.82
2022-08-16T07:52:57.279Z,69.17
2022-08-16T07:55:45.432Z,70.00
2022-08-16T07:58:06.945Z,70.96
2022-08-16T08:00:41.398Z,73.04
2022-08-16T08:03:15.473Z,75.21
2022-08-16T08:05:48.218Z,76.67
2022-08-16T08:08:49.819Z,77.56
2022-08-16T08:11:01.940Z,78.23
2022-08-16T08:13:41.951Z,78.78
2022-08-16T08:16:18.989Z,79.26
2022-08-16T08:18:50.231Z,79.74
2022-08-16T08:21:59.509Z,79.29
2022-08-16T08:24:01.655Z,78.34
2022-08-16T08:26:34.685Z,78.84
2022-08-16T08:29:08.540Z,79.41
2022-08-16T08:31:42.514Z,80.15
2022-08-16T08:34:17.895Z,81.00
2022-08-16T08:36:54.139Z,82.19
2022-08-16T08:39:36.508Z,83.27
2022-08-16T08:42:10.749Z,84.48
2022-08-16T08:44:43.855Z,85.44
2022-08-16T08:47:19.239Z,86.99
2022-08-16T08:49:56.036Z,88.02
2022-08-16T08:52:44.494Z,89.08
2022-08-16T08:55:09.541Z,89.13
2022-08-16T08:57:47.699Z,89.82
2022-08-16T09:00:26.999Z,90.29
2022-08-16T09:02:59.787Z,91.27
2022-08-16T09:05:37.263Z,91.98
2022-08-16T09:08:12.692Z,92.59
2022-08-16T09:10:56.770Z,93.12
2022-08-16T09:13:27.743Z,93.16
2022-08-16T09:16:03.297Z,93.52
2022-08-16T09:18:36.969Z,93.55
2022-08-16T09:21:11.480Z,93.57
2022-08-16T09:23:45.738Z,93.75
2022-08-16T09:26:45.399Z,94.02
2022-08-16T09:29:16.162Z,93.88
2022-08-16T09:31:30.457Z,93.08
2022-08-16T09:34:04.788Z,91.75
2022-08-16T09:36:46.211Z,91.10
2022-08-16T09:39:16.039Z,90.40
2022-08-16T09:41:53.319Z,90.17
2022-08-16T09:45:12.161Z,89.90
2022-08-16T09:47:02.840Z,88.51
2022-08-16T09:49:37.102Z,88.13
2022-08-16T09:52:10.587Z,88.43
2022-08-16T09:54:44.378Z,87.58
2022-08-16T09:57:18.277Z,86.81
2022-08-16T09:59:56.214Z,84.25
2022-08-16T10:02:27.987Z,81.94
2022-08-16T10:05:00.824Z,79.26
2022-08-16T10:07:44.734Z,79.88
2022-08-16T10:10:11.796Z,80.51
2022-08-16T10:12:55.576Z,79.77
2022-08-16T10:15:30.158Z,80.78
2022-08-16T10:18:41.038Z,81.76
2022-08-16T10:20:42.919Z,81.67
2022-08-16T10:23:19.221Z,81.67
2022-08-16T10:27:19.013Z,80.73
2022-08-16T10:28:30.399Z,80.81
2022-08-16T10:31:04.356Z,81.05
2022-08-16T10:33:40.312Z,80.96
2022-08-16T10:36:12.621Z,79.81
2022-08-16T10:38:46.818Z,80.11
2022-08-16T10:41:25.193Z,81.71
2022-08-16T10:43:55.337Z,82.99
2022-08-16T10:46:39.322Z,83.68
2022-08-16T10:49:06.827Z,85.24
2022-08-16T10:52:00.890Z,86.88
2022-08-16T10:54:29.567Z,87.55
2022-08-16T10:56:55.595Z,87.05
2022-08-16T10:59:44.060Z,86.97
2022-08-16T11:07:08.305Z,84.25
2022-08-16T11:09:43.746Z,83.93
2022-08-16T11:12:15.347Z,83.23
2022-08-16T11:17:22.412Z,81.62
2022-08-16T11:20:01.205Z,80.88
2022-08-16T11:22:47.325Z,80.77
2022-08-16T11:25:56.371Z,80.81
2022-08-16T11:27:40.701Z,80.29
2022-08-16T11:30:19.887Z,79.09
2022-08-16T11:32:50.122Z,79.15
2022-08-16T11:38:47.639Z,79.44
2022-08-16T11:40:52.575Z,79.29
2022-08-16T11:43:34.557Z,79.56
2022-08-16T11:46:45.410Z,79.94
2022-08-16T11:48:48.611Z,79.60
2022-08-16T11:51:21.955Z,78.47
2022-08-16T11:53:55.163Z,78.45
2022-08-16T11:56:39.530Z,78.57
2022-08-16T11:59:03.726Z,79.17
2022-08-16T12:01:44.465Z,79.54
2022-08-16T12:04:11.272Z,78.61
2022-08-16T12:06:45.595Z,78.10
2022-08-16T12:09:20.156Z,78.29
2022-08-16T12:11:54.156Z,78.14
2022-08-16T12:14:27.600Z,78.19
2022-08-16T12:17:05.768Z,78.81
2022-08-16T12:19:39.578Z,78.79
2022-08-16T12:22:19.729Z,79.34
2022-08-16T12:24:51.186Z,79.98
2022-08-16T12:27:22.985Z,80.40
2022-08-16T12:29:58.725Z,80.50
2022-08-16T12:32:39.332Z,80.81
2022-08-16T12:35:05.793Z,80.68
2022-08-16T12:37:40.014Z,81.33
2022-08-16T12:40:24.419Z,81.69
2022-08-16T12:42:52.687Z,81.21
2022-08-16T12:45:25.875Z,80.83
2022-08-16T12:48:33.758Z,81.05
2022-08-16T12:50:51.407Z,80.67
2022-08-16T12:53:24.045Z,80.38
2022-08-16T12:55:56.932Z,80.89
2022-08-16T12:58:50.012Z,81.27
2022-08-16T13:01:06.146Z,80.47
2022-08-16T13:03:40.587Z,81.08
2022-08-16T13:06:20.073Z,79.65
2022-08-16T13:08:51.679Z,78.76
2022-08-16T13:11:37.811Z,79.61
2022-08-16T13:14:19.245Z,79.20
2022-08-16T13:16:44.990Z,78.84
2022-08-16T13:19:18.029Z,78.89
2022-08-16T13:21:54.005Z,79.32
2022-08-16T13:24:26.391Z,78.14
2022-08-16T13:26:58.967Z,77.03
2022-08-16T13:29:39.964Z,76.61
2022-08-16T13:32:08.330Z,76.45
2022-08-16T13:34:41.743Z,75.46
2022-08-16T13:37:14.555Z,75.51
2022-08-16T13:39:48.983Z,75.87
2022-08-16T13:42:23.136Z,75.89
2022-08-16T13:44:56.409Z,76.71
2022-08-16T13:47:30.465Z,77.32
2022-08-16T13:50:03.703Z,78.07
2022-08-16T13:52:40.024Z,78.82
2022-08-16T13:55:17.573Z,80.07
2022-08-16T13:58:35.087Z,80.72
2022-08-16T14:00:23.126Z,81.27
2022-08-16T14:02:59.208Z,81.36
2022-08-16T14:05:31.288Z,80.67
2022-08-16T14:08:05.282Z,80.27
2022-08-16T14:10:38.211Z,80.13
2022-08-16T14:13:19.955Z,78.94
2022-08-16T14:15:47.626Z,79.04
2022-08-16T14:18:21.064Z,79.51
2022-08-16T14:20:53.899Z,79.61
2022-08-16T14:23:26.480Z,79.55
2022-08-16T14:26:00.014Z,78.76
2022-08-16T14:28:32.881Z,78.99
2022-08-16T14:31:07.874Z,78.68
2022-08-16T14:33:40.737Z,79.26
2022-08-16T14:36:18.848Z,79.21
2022-08-16T14:38:49.079Z,78.78
2022-08-16T14:41:21.756Z,79.02
2022-08-16T14:43:56.411Z,79.51
2022-08-16T14:46:29.805Z,79.67
2022-08-16T14:49:02.619Z,80.13
2022-08-16T14:51:35.661Z,80.87
2022-08-16T14:54:11.292Z,81.09
2022-08-16T14:56:46.929Z,81.75
2022-08-16T14:59:19.078Z,81.80
2022-08-16T15:01:58.921Z,81.73
2022-08-16T15:04:37.816Z,82.52
2022-08-16T15:07:05.774Z,83.03
2022-08-16T15:09:43.836Z,82.93
2022-08-16T15:12:26.905Z,83.06
2022-08-16T15:14:56.297Z,82.94
2022-08-16T15:17:33.881Z,83.20
2022-08-16T15:20:08.794Z,82.74
2022-08-16T15:22:47.967Z,82.32
2022-08-16T15:25:35.197Z,82.69
2022-08-16T15:28:23.591Z,82.61
2022-08-16T15:30:58.256Z,83.44
2022-08-16T15:33:22.753Z,83.75
2022-08-16T15:35:58.515Z,84.11
2022-08-16T15:38:43.556Z,85.01
2022-08-16T15:41:05.155Z,85.56
2022-08-16T15:43:39.799Z,86.70
2022-08-16T15:46:35.790Z,87.43
2022-08-16T15:49:09.672Z,88.44
2022-08-16T15:51:45.446Z,89.60
2022-08-16T15:54:30.058Z,90.97
2022-08-16T15:56:56.214Z,91.47
2022-08-16T15:59:28.776Z,92.19
2022-08-16T16:02:02.932Z,92.71
2022-08-16T16:04:35.722Z,92.81
2022-08-16T16:07:09.988Z,93.39
2022-08-16T16:09:42.841Z,93.81
2022-08-16T16:12:50.131Z,94.50
2022-08-16T16:14:52.404Z,94.93
2022-08-16T16:17:25.792Z,96.18
2022-08-16T16:19:59.990Z,96.15
2022-08-16T16:22:33.934Z,96.84
2022-08-16T16:25:08.229Z,97.17
2022-08-16T16:27:42.578Z,97.56
2022-08-16T16:30:37.579Z,97.62
2022-08-16T16:32:50.196Z,97.50
2022-08-16T16:35:25.339Z,97.98
2022-08-16T16:37:57.932Z,98.32
2022-08-16T16:40:32.701Z,98.93
2022-08-16T16:43:06.454Z,99.25
2022-08-16T16:45:41.136Z,99.78
2022-08-16T16:48:14.601Z,99.77
2022-08-16T16:50:48.809Z,100.00
2022-08-16T16:53:23.170Z,100.00
2022-08-16T16:55:56.975Z,100.00
2022-08-16T16:58:53.418Z,100.00
2022-08-16T17:01:24.046Z,100.00
2022-08-16T17:03:56.603Z,100.00
2022-08-16T17:06:29.370Z,100.00
2022-08-16T17:09:01.939Z,100.00
2022-08-16T17:11:37.500Z,99.78
2022-08-16T17:14:17.412Z,99.81
2022-08-16T17:16:46.891Z,100.00
2022-08-16T17:19:21.865Z,100.00
2022-08-16T17:22:05.084Z,100.00
2022-08-16T17:24:40.111Z,100.00
2022-08-16T17:27:18.114Z,100.00
2022-08-16T17:29:51.394Z,100.00
2022-08-16T17:32:33.781Z,100.00
2022-08-16T17:35:07.146Z,100.00
2022-08-16T17:40:47.583Z,100.00
2022-08-16T17:43:02.426Z,100.00
2022-08-16T17:45:36.129Z,100.00
2022-08-16T17:48:08.654Z,100.00
2022-08-16T17:50:41.969Z,100.00
2022-08-16T17:53:14.860Z,100.00
2022-08-16T17:55:50.581Z,100.00
2022-08-16T17:58:25.046Z,100.00
2022-08-16T18:01:00.338Z,100.00
2022-08-16T18:04:07.807Z,100.00
2022-08-16T18:06:13.534Z,100.00
2022-08-16T18:08:48.602Z,100.00
2022-08-16T18:11:25.696Z,100.00
2022-08-16T18:13:57.516Z,100.00
2022-08-16T18:16:31.508Z,100.00
2022-08-16T18:19:05.033Z,100.00
2022-08-16T18:21:55.705Z,100.00
2022-08-16T18:24:31.391Z,100.00
2022-08-16T18:27:26.053Z,100.00
2022-08-16T18:29:38.048Z,100.00
2022-08-16T18:32:12.284Z,100.00
2022-08-16T18:34:45.264Z,100.00
2022-08-16T18:37:17.927Z,100.00
2022-08-16T18:39:50.399Z,100.00
2022-08-16T18:42:22.884Z,100.00
2022-08-16T18:44:56.410Z,100.00
2022-08-16T18:47:28.986Z,100.00
2022-08-16T18:50:02.713Z,100.00
2022-08-16T18:52:36.422Z,100.00
2022-08-16T18:55:13.949Z,100.00
2022-08-16T18:57:44.631Z,100.00
2022-08-16T19:00:18.173Z,100.00
2022-08-16T19:02:59.129Z,100.00
2022-08-16T19:05:29.394Z,100.00
2022-08-16T19:08:02.567Z,100.00
2022-08-16T19:10:36.639Z,100.00
2022-08-16T19:13:14.016Z,100.00
2022-08-16T19:15:47.950Z,100.00
2022-08-16T19:18:20.862Z,100.00
2022-08-16T19:20:53.590Z,100.00
2022-08-16T19:23:29.416Z,100.00
2022-08-16T19:26:06.060Z,100.00
2022-08-16T19:28:50.466Z,100.00
2022-08-16T19:31:26.138Z,100.00
2022-08-16T19:33:59.170Z,100.00
2022-08-16T19:36:36.947Z,100.00
2022-08-16T19:39:15.924Z,100.00
2022-08-16T19:41:50.575Z,100.00
2022-08-16T19:44:24.453Z,100.00
2022-08-16T19:46:58.999Z,100.00
2022-08-16T19:49:31.615Z,100.00
2022-08-16T19:52:25.677Z,100.00
2022-08-16T19:55:03.462Z,100.00
2022-08-16T19:57:37.073Z,100.00
2022-08-16T20:00:15.541Z,100.00
2022-08-16T20:02:52.538Z,100.00
2022-08-16T20:05:34.552Z,100.00
2022-08-16T20:08:08.204Z,100.00
2022-08-16T20:10:43.374Z,100.00
2022-08-16T20:13:22.090Z,100.00
2022-08-16T20:15:54.897Z,100.00
2022-08-16T20:18:27.464Z,100.00
2022-08-16T20:21:00.316Z,100.00
2022-08-16T20:23:34.559Z,100.00
2022-08-16T20:26:08.602Z,100.00
2022-08-16T20:28:52.472Z,100.00
2022-08-16T20:31:17.529Z,100.00
2022-08-16T20:33:51.563Z,100.00
2022-08-16T20:36:24.726Z,100.00
2022-08-16T20:38:59.580Z,100.00
2022-08-16T20:41:32.597Z,100.00
2022-08-16T20:44:05.988Z,100.00
2022-08-16T20:46:40.361Z,100.00
2022-08-16T20:49:13.154Z,100.00
2022-08-16T20:51:47.011Z,100.00
2022-08-16T20:54:21.673Z,100.00
2022-08-16T20:56:55.403Z,100.00
2022-08-16T20:59:28.990Z,100.00
2022-08-16T21:02:02.071Z,100.00
2022-08-16T21:04:35.870Z,100.00
2022-08-16T21:07:09.535Z,100.00
2022-08-16T21:09:42.012Z,100.00
2022-08-16T21:12:18.001Z,100.00
2022-08-16T21:14:51.627Z,100.00
2022-08-16T21:17:25.067Z,100.00
2022-08-16T21:19:57.613Z,100.00
2022-08-16T21:22:30.429Z,100.00
2022-08-16T21:25:02.972Z,100.00
2022-08-16T21:27:39.464Z,100.00
2022-08-16T21:30:13.994Z,100.00
2022-08-16T21:32:48.539Z,100.00
2022-08-16T21:35:21.139Z,100.00
2022-08-16T21:38:01.020Z,100.00
2022-08-16T21:40:31.365Z,100.00
2022-08-16T21:43:13.754Z,100.00
2022-08-16T21:45:48.126Z,100.00
2022-08-16T21:48:34.971Z,100.00
2022-08-16T21:50:58.750Z,100.00
2022-08-16T21:53:32.131Z,100.00
2022-08-16T21:56:06.097Z,100.00
2022-08-16T21:58:39.132Z,100.00
2022-08-16T22:01:11.580Z,100.00
2022-08-16T22:03:44.144Z,100.00
2022-08-16T22:06:17.058Z,100.00
2022-08-16T22:08:51.137Z,100.00
2022-08-16T22:11:25.862Z,100.00
2022-08-16T22:13:59.488Z,100.00
2022-08-16T22:16:35.402Z,100.00
2022-08-16T22:19:08.440Z,100.00
2022-08-16T22:21:41.099Z,100.00
2022-08-16T22:24:14.116Z,100.00
2022-08-16T22:26:47.208Z,100.00
2022-08-16T22:29:19.690Z,100.00
2022-08-16T22:31:52.193Z,100.00
2022-08-16T22:34:26.371Z,100.00
2022-08-16T22:36:58.919Z,100.00
2022-08-16T22:39:31.685Z,100.00
2022-08-16T22:42:09.259Z,100.00
2022-08-16T22:44:46.342Z,99.83
2022-08-16T22:47:17.409Z,99.78
2022-08-16T22:49:50.711Z,99.57
2022-08-16T22:52:52.741Z,99.53
2022-08-16T22:54:57.883Z,99.19
2022-08-16T22:57:30.301Z,99.03
2022-08-16T23:00:02.967Z,98.99
2022-08-16T23:02:36.473Z,99.14
2022-08-16T23:05:10.308Z,99.29
2022-08-16T23:07:43.052Z,99.64
2022-08-16T23:10:16.117Z,99.33
2022-08-16T23:12:51.907Z,99.00
2022-08-16T23:15:25.034Z,99.24
2022-08-16T23:17:58.725Z,99.04
2022-08-16T23:20:31.232Z,98.62
2022-08-16T23:23:21.247Z,98.86
2022-08-16T23:25:41.066Z,98.12
2022-08-16T23:28:13.985Z,98.11
2022-08-16T23:30:46.376Z,98.03
2022-08-16T23:33:20.370Z,98.01
2022-08-16T23:35:56.783Z,98.21
2022-08-16T23:38:37.474Z,98.21
2022-08-16T23:41:11.876Z,97.93
2022-08-16T23:43:45.626Z,97.40
2022-08-16T23:46:19.661Z,97.43
2022-08-16T23:49:56.847Z,97.20
2022-08-16T23:51:30.124Z,96.47
2022-08-16T23:54:02.682Z,96.89
2022-08-16T23:56:40.555Z,96.30
2022-08-16T23:59:11.398Z,96.00
